Willows, California
Current Conditions -  °F | °C
As of 12:56 PM on Tuesday 21 Oct 2014 (Local Time) from KCIC Reporting Station
Broken Clouds Broken Clouds  
Wind Chill: 68°   Ceiling: 25000
Heat Index: 68°   Visibility: 80mi
Dew Point: 39°   Wind: 9mph
Humidity: 35%   Direction: 310°NW
Pressure: 30.09"   Gusts: NA
Location:  39.52°N, 122.19°W
Report Text: KCIC 211956Z 31008KT 80SM FEW060 BKN250 20/04 A3009
Loading
Personal Weather Stations






























Interactive Weather Map
Tropical Storm Tracking
New forecast layout! Learn more

10-Day Weather Forecast

Advertisements
Track Severe Weather on mobile